sensor_id;sensor_type;location;lat;lon;timestamp;pressure;altitude;pressure_sealevel;temperature;humidity
11099;BME280;12223;42.650;23.364;2023-05-28T00:00:23;94442.38;;;15.71;nan
11099;BME280;12223;42.650;23.364;2023-05-28T00:02:51;94449.59;;;15.75;nan
11099;BME280;12223;42.650;23.364;2023-05-28T00:05:19;94457.63;;;15.80;nan
11099;BME280;12223;42.650;23.364;2023-05-28T00:07:45;94464.25;;;15.78;nan
11099;BME280;12223;42.650;23.364;2023-05-28T00:10:14;94472.84;;;15.90;nan
11099;BME280;12223;42.650;23.364;2023-05-28T00:12:41;94475.50;;;15.90;nan
11099;BME280;12223;42.650;23.364;2023-05-28T00:15:08;94462.16;;;15.80;nan
11099;BME280;12223;42.650;23.364;2023-05-28T00:17:35;94471.22;;;15.89;nan
11099;BME280;12223;42.650;23.364;2023-05-28T00:20:05;94469.91;;;15.86;nan
11099;BME280;12223;42.650;23.364;2023-05-28T00:22:33;94474.69;;;15.84;nan
11099;BME280;12223;42.650;23.364;2023-05-28T00:25:00;94467.47;;;15.80;nan
11099;BME280;12223;42.650;23.364;2023-05-28T00:27:28;94476.56;;;15.89;nan
11099;BME280;12223;42.650;23.364;2023-05-28T00:29:55;94488.22;;;15.78;nan
11099;BME280;12223;42.650;23.364;2023-05-28T00:32:22;94478.63;;;15.77;nan
11099;BME280;12223;42.650;23.364;2023-05-28T00:34:49;94485.81;;;15.81;nan
11099;BME280;12223;42.650;23.364;2023-05-28T00:37:18;94475.22;;;15.86;nan
11099;BME280;12223;42.650;23.364;2023-05-28T00:39:45;94473.38;;;15.92;nan
11099;BME280;12223;42.650;23.364;2023-05-28T00:42:12;94462.75;;;15.97;nan
11099;BME280;12223;42.650;23.364;2023-05-28T00:44:41;94472.34;;;16.03;nan
11099;BME280;12223;42.650;23.364;2023-05-28T00:47:08;94475.81;;;16.03;nan
11099;BME280;12223;42.650;23.364;2023-05-28T00:49:36;94476.88;;;15.97;nan
11099;BME280;12223;42.650;23.364;2023-05-28T00:52:04;94466.44;;;15.91;nan
11099;BME280;12223;42.650;23.364;2023-05-28T00:54:31;94447.00;;;15.90;nan
11099;BME280;12223;42.650;23.364;2023-05-28T00:56:58;94451.50;;;15.80;nan
11099;BME280;12223;42.650;23.364;2023-05-28T00:59:26;94449.34;;;15.82;nan
11099;BME280;12223;42.650;23.364;2023-05-28T01:01:55;94471.53;;;15.92;nan
11099;BME280;12223;42.650;23.364;2023-05-28T01:04:23;94463.22;;;15.84;nan
11099;BME280;12223;42.650;23.364;2023-05-28T01:06:54;94470.41;;;15.83;nan
11099;BME280;12223;42.650;23.364;2023-05-28T01:09:23;94474.66;;;15.79;nan
11099;BME280;12223;42.650;23.364;2023-05-28T01:12:04;94473.53;;;15.70;nan
11099;BME280;12223;42.650;23.364;2023-05-28T01:14:32;94460.41;;;15.58;nan
11099;BME280;12223;42.650;23.364;2023-05-28T01:17:00;94454.28;;;15.58;nan
11099;BME280;12223;42.650;23.364;2023-05-28T01:19:27;94450.81;;;15.52;nan
11099;BME280;12223;42.650;23.364;2023-05-28T01:21:57;94442.47;;;15.44;nan
11099;BME280;12223;42.650;23.364;2023-05-28T01:24:28;94430.47;;;15.36;nan
11099;BME280;12223;42.650;23.364;2023-05-28T01:26:57;94433.94;;;15.42;nan
11099;BME280;12223;42.650;23.364;2023-05-28T01:29:24;94433.66;;;15.38;nan
11099;BME280;12223;42.650;23.364;2023-05-28T01:31:51;94465.09;;;15.41;nan
11099;BME280;12223;42.650;23.364;2023-05-28T01:34:18;94450.19;;;15.45;nan
11099;BME280;12223;42.650;23.364;2023-05-28T01:36:51;94456.41;;;15.56;nan
11099;BME280;12223;42.650;23.364;2023-05-28T01:39:19;94453.22;;;15.54;nan
11099;BME280;12223;42.650;23.364;2023-05-28T01:41:50;94446.03;;;15.54;nan
11099;BME280;12223;42.650;23.364;2023-05-28T01:44:18;94450.81;;;15.57;nan
11099;BME280;12223;42.650;23.364;2023-05-28T01:46:46;94448.72;;;15.59;nan
11099;BME280;12223;42.650;23.364;2023-05-28T01:49:13;94448.41;;;15.56;nan
11099;BME280;12223;42.650;23.364;2023-05-28T01:51:41;94447.97;;;15.69;nan
11099;BME280;12223;42.650;23.364;2023-05-28T01:54:08;94444.72;;;15.62;nan
11099;BME280;12223;42.650;23.364;2023-05-28T01:56:35;94460.69;;;15.62;nan
11099;BME280;12223;42.650;23.364;2023-05-28T01:59:04;94462.84;;;15.65;nan
11099;BME280;12223;42.650;23.364;2023-05-28T02:01:32;94465.00;;;15.68;nan
11099;BME280;12223;42.650;23.364;2023-05-28T02:04:01;94489.13;;;15.98;nan
11099;BME280;12223;42.650;23.364;2023-05-28T02:06:30;94486.75;;;16.02;nan
11099;BME280;12223;42.650;23.364;2023-05-28T02:08:57;94496.09;;;16.09;nan
11099;BME280;12223;42.650;23.364;2023-05-28T02:11:25;94481.31;;;15.82;nan
11099;BME280;12223;42.650;23.364;2023-05-28T02:13:52;94477.28;;;15.74;nan
11099;BME280;12223;42.650;23.364;2023-05-28T02:16:23;94482.22;;;16.02;nan
11099;BME280;12223;42.650;23.364;2023-05-28T02:19:03;94491.56;;;16.10;nan
11099;BME280;12223;42.650;23.364;2023-05-28T02:21:30;94503.78;;;16.01;nan
11099;BME280;12223;42.650;23.364;2023-05-28T02:23:57;94501.66;;;16.03;nan
11099;BME280;12223;42.650;23.364;2023-05-28T02:26:24;94499.72;;;15.93;nan
11099;BME280;12223;42.650;23.364;2023-05-28T02:28:51;94508.00;;;15.92;nan
11099;BME280;12223;42.650;23.364;2023-05-28T02:31:17;94510.66;;;15.92;nan
11099;BME280;12223;42.650;23.364;2023-05-28T02:34:01;94500.97;;;15.76;nan
11099;BME280;12223;42.650;23.364;2023-05-28T02:36:31;94480.66;;;15.59;nan
11099;BME280;12223;42.650;23.364;2023-05-28T02:38:58;94471.91;;;15.64;nan
11099;BME280;12223;42.650;23.364;2023-05-28T02:41:29;94471.09;;;15.63;nan
11099;BME280;12223;42.650;23.364;2023-05-28T02:43:56;94467.38;;;15.64;nan
11099;BME280;12223;42.650;23.364;2023-05-28T02:46:24;94479.38;;;15.67;nan
11099;BME280;12223;42.650;23.364;2023-05-28T02:48:51;94480.19;;;15.67;nan
11099;BME280;12223;42.650;23.364;2023-05-28T02:51:21;94490.31;;;15.76;nan
11099;BME280;12223;42.650;23.364;2023-05-28T02:53:48;94490.06;;;15.72;nan
11099;BME280;12223;42.650;23.364;2023-05-28T02:56:15;94488.91;;;15.63;nan
11099;BME280;12223;42.650;23.364;2023-05-28T02:58:42;94504.75;;;15.80;nan
11099;BME280;12223;42.650;23.364;2023-05-28T03:01:09;94501.78;;;15.76;nan
11099;BME280;12223;42.650;23.364;2023-05-28T03:03:38;94490.34;;;15.81;nan
11099;BME280;12223;42.650;23.364;2023-05-28T03:06:05;94491.44;;;15.80;nan
11099;BME280;12223;42.650;23.364;2023-05-28T03:08:34;94503.19;;;15.89;nan
11099;BME280;12223;42.650;23.364;2023-05-28T03:11:03;94504.28;;;15.93;nan
11099;BME280;12223;42.650;23.364;2023-05-28T03:13:30;94480.78;;;15.80;nan
11099;BME280;12223;42.650;23.364;2023-05-28T03:15:57;94478.88;;;15.75;nan
11099;BME280;12223;42.650;23.364;2023-05-28T03:18:24;94511.50;;;15.97;nan
11099;BME280;12223;42.650;23.364;2023-05-28T03:20:51;94509.91;;;16.01;nan
11099;BME280;12223;42.650;23.364;2023-05-28T03:23:19;94512.88;;;16.05;nan
11099;BME280;12223;42.650;23.364;2023-05-28T03:25:47;94521.94;;;16.09;nan
11099;BME280;12223;42.650;23.364;2023-05-28T03:28:15;94517.97;;;16.12;nan
11099;BME280;12223;42.650;23.364;2023-05-28T03:30:42;94515.56;;;16.10;nan
11099;BME280;12223;42.650;23.364;2023-05-28T03:33:10;94509.16;;;16.11;nan
11099;BME280;12223;42.650;23.364;2023-05-28T03:35:37;94506.19;;;16.07;nan
11099;BME280;12223;42.650;23.364;2023-05-28T03:38:04;94511.84;;;16.11;nan
11099;BME280;12223;42.650;23.364;2023-05-28T03:40:31;94528.38;;;16.18;nan
11099;BME280;12223;42.650;23.364;2023-05-28T03:42:59;94525.44;;;16.20;nan
11099;BME280;12223;42.650;23.364;2023-05-28T03:45:26;94528.88;;;16.15;nan
11099;BME280;12223;42.650;23.364;2023-05-28T03:47:52;94528.94;;;16.25;nan
11099;BME280;12223;42.650;23.364;2023-05-28T03:50:21;94525.22;;;16.31;nan
11099;BME280;12223;42.650;23.364;2023-05-28T03:52:50;94525.47;;;16.25;nan
11099;BME280;12223;42.650;23.364;2023-05-28T03:55:16;94532.13;;;16.27;nan
11099;BME280;12223;42.650;23.364;2023-05-28T03:57:43;94532.38;;;16.26;nan
11099;BME280;12223;42.650;23.364;2023-05-28T04:00:13;94538.03;;;16.34;nan
11099;BME280;12223;42.650;23.364;2023-05-28T04:02:41;94535.63;;;16.33;nan
11099;BME280;12223;42.650;23.364;2023-05-28T04:05:08;94528.19;;;16.35;nan
11099;BME280;12223;42.650;23.364;2023-05-28T04:07:35;94506.53;;;16.21;nan
11099;BME280;12223;42.650;23.364;2023-05-28T04:10:03;94531.91;;;16.39;nan
11099;BME280;12223;42.650;23.364;2023-05-28T04:12:30;94534.31;;;16.35;nan
11099;BME280;12223;42.650;23.364;2023-05-28T04:14:58;94537.47;;;16.32;nan
11099;BME280;12223;42.650;23.364;2023-05-28T04:17:27;94550.56;;;16.39;nan
11099;BME280;12223;42.650;23.364;2023-05-28T04:19:54;94540.47;;;16.41;nan
11099;BME280;12223;42.650;23.364;2023-05-28T04:22:21;94545.25;;;16.44;nan
11099;BME280;12223;42.650;23.364;2023-05-28T04:24:49;94543.41;;;16.44;nan
11099;BME280;12223;42.650;23.364;2023-05-28T04:27:19;94543.44;;;16.55;nan
11099;BME280;12223;42.650;23.364;2023-05-28T04:29:47;94549.31;;;16.57;nan
11099;BME280;12223;42.650;23.364;2023-05-28T04:32:14;94541.09;;;16.63;nan
11099;BME280;12223;42.650;23.364;2023-05-28T04:34:42;94528.84;;;16.62;nan
11099;BME280;12223;42.650;23.364;2023-05-28T04:37:09;94559.25;;;16.66;nan
11099;BME280;12223;42.650;23.364;2023-05-28T04:39:36;94552.59;;;16.69;nan
11099;BME280;12223;42.650;23.364;2023-05-28T04:42:03;94554.22;;;16.75;nan
11099;BME280;12223;42.650;23.364;2023-05-28T04:44:33;94541.13;;;16.68;nan
11099;BME280;12223;42.650;23.364;2023-05-28T04:47:00;94554.75;;;16.82;nan
11099;BME280;12223;42.650;23.364;2023-05-28T04:49:27;94560.38;;;16.85;nan
11099;BME280;12223;42.650;23.364;2023-05-28T04:51:56;94574.50;;;16.86;nan
11099;BME280;12223;42.650;23.364;2023-05-28T04:54:23;94575.06;;;16.88;nan
11099;BME280;12223;42.650;23.364;2023-05-28T04:56:51;94562.50;;;16.88;nan
11099;BME280;12223;42.650;23.364;2023-05-28T04:59:19;94534.25;;;16.87;nan
11099;BME280;12223;42.650;23.364;2023-05-28T05:01:46;94544.13;;;17.07;nan
11099;BME280;12223;42.650;23.364;2023-05-28T05:04:13;94551.88;;;17.14;nan
11099;BME280;12223;42.650;23.364;2023-05-28T05:06:40;94556.19;;;17.25;nan
11099;BME280;12223;42.650;23.364;2023-05-28T05:09:09;94547.63;;;17.28;nan
11099;BME280;12223;42.650;23.364;2023-05-28T05:11:36;94568.72;;;17.35;nan
11099;BME280;12223;42.650;23.364;2023-05-28T05:17:17;94561.00;;;17.43;nan
11099;BME280;12223;42.650;23.364;2023-05-28T05:19:46;94538.28;;;17.41;nan
11099;BME280;12223;42.650;23.364;2023-05-28T05:22:13;94518.25;;;17.33;nan
11099;BME280;12223;42.650;23.364;2023-05-28T05:24:50;94542.03;;;17.65;nan
11099;BME280;12223;42.650;23.364;2023-05-28T05:27:17;94532.16;;;17.60;nan
11099;BME280;12223;42.650;23.364;2023-05-28T05:29:43;94552.72;;;17.75;nan
11099;BME280;12223;42.650;23.364;2023-05-28T05:32:11;94557.78;;;17.82;nan
11099;BME280;12223;42.650;23.364;2023-05-28T05:34:39;94562.31;;;17.86;nan
11099;BME280;12223;42.650;23.364;2023-05-28T05:37:07;94562.56;;;17.90;nan
11099;BME280;12223;42.650;23.364;2023-05-28T05:39:33;94565.78;;;17.92;nan
11099;BME280;12223;42.650;23.364;2023-05-28T05:42:05;94574.31;;;18.04;nan
11099;BME280;12223;42.650;23.364;2023-05-28T05:44:32;94572.44;;;18.09;nan
11099;BME280;12223;42.650;23.364;2023-05-28T05:46:59;94591.41;;;18.13;nan
11099;BME280;12223;42.650;23.364;2023-05-28T05:49:29;94597.00;;;18.22;nan
11099;BME280;12223;42.650;23.364;2023-05-28T05:52:02;94596.72;;;18.33;nan
11099;BME280;12223;42.650;23.364;2023-05-28T05:54:30;94595.91;;;18.33;nan
11099;BME280;12223;42.650;23.364;2023-05-28T05:56:57;94611.41;;;18.31;nan
11099;BME280;12223;42.650;23.364;2023-05-28T05:59:25;94609.78;;;18.35;nan
11099;BME280;12223;42.650;23.364;2023-05-28T06:01:52;94612.22;;;18.31;nan
11099;BME280;12223;42.650;23.364;2023-05-28T06:04:19;94611.41;;;18.36;nan
11099;BME280;12223;42.650;23.364;2023-05-28T06:06:49;94605.81;;;18.32;nan
11099;BME280;12223;42.650;23.364;2023-05-28T06:09:16;94612.50;;;18.20;nan
11099;BME280;12223;42.650;23.364;2023-05-28T06:11:43;94599.44;;;17.98;nan
11099;BME280;12223;42.650;23.364;2023-05-28T06:14:10;94616.81;;;18.05;nan
11099;BME280;12223;42.650;23.364;2023-05-28T06:16:38;94620.28;;;18.01;nan
11099;BME280;12223;42.650;23.364;2023-05-28T06:19:06;94619.47;;;17.90;nan
11099;BME280;12223;42.650;23.364;2023-05-28T06:21:34;94614.13;;;18.05;nan
11099;BME280;12223;42.650;23.364;2023-05-28T06:24:02;94620.00;;;18.13;nan
11099;BME280;12223;42.650;23.364;2023-05-28T06:26:28;94627.72;;;18.29;nan
11099;BME280;12223;42.650;23.364;2023-05-28T06:28:55;94617.81;;;18.35;nan
11099;BME280;12223;42.650;23.364;2023-05-28T06:31:22;94622.63;;;18.38;nan
11099;BME280;12223;42.650;23.364;2023-05-28T06:33:50;94599.69;;;18.27;nan
11099;BME280;12223;42.650;23.364;2023-05-28T06:36:17;94609.88;;;17.99;nan
11099;BME280;12223;42.650;23.364;2023-05-28T06:38:44;94620.00;;;17.97;nan
11099;BME280;12223;42.650;23.364;2023-05-28T06:41:12;94611.22;;;18.02;nan
11099;BME280;12223;42.650;23.364;2023-05-28T06:43:38;94623.78;;;18.01;nan
11099;BME280;12223;42.650;23.364;2023-05-28T06:46:05;94611.47;;;17.80;nan
11099;BME280;12223;42.650;23.364;2023-05-28T06:48:32;94598.13;;;17.65;nan
11099;BME280;12223;42.650;23.364;2023-05-28T06:51:00;94610.91;;;17.58;nan
11099;BME280;12223;42.650;23.364;2023-05-28T06:53:27;94604.22;;;17.35;nan
11099;BME280;12223;42.650;23.364;2023-05-28T06:55:54;94603.97;;;17.52;nan
11099;BME280;12223;42.650;23.364;2023-05-28T06:58:20;94609.03;;;17.43;nan
11099;BME280;12223;42.650;23.364;2023-05-28T07:00:47;94613.34;;;17.64;nan
11099;BME280;12223;42.650;23.364;2023-05-28T07:03:14;94612.28;;;17.76;nan
11099;BME280;12223;42.650;23.364;2023-05-28T07:05:41;94624.56;;;17.72;nan
11099;BME280;12223;42.650;23.364;2023-05-28T07:08:09;94609.09;;;17.63;nan
11099;BME280;12223;42.650;23.364;2023-05-28T07:10:36;94612.28;;;17.76;nan
11099;BME280;12223;42.650;23.364;2023-05-28T07:13:04;94603.97;;;18.13;nan
11099;BME280;12223;42.650;23.364;2023-05-28T07:15:31;94607.41;;;18.38;nan
11099;BME280;12223;42.650;23.364;2023-05-28T07:17:58;94620.97;;;18.67;nan
11099;BME280;12223;42.650;23.364;2023-05-28T07:20:26;94627.63;;;19.29;nan
11099;BME280;12223;42.650;23.364;2023-05-28T07:22:53;94626.78;;;20.12;nan
11099;BME280;12223;42.650;23.364;2023-05-28T07:25:23;94640.84;;;20.56;nan
11099;BME280;12223;42.650;23.364;2023-05-28T07:27:50;94643.06;;;20.78;nan
11099;BME280;12223;42.650;23.364;2023-05-28T07:30:17;94644.69;;;20.98;nan
11099;BME280;12223;42.650;23.364;2023-05-28T07:32:43;94638.69;;;21.06;nan
11099;BME280;12223;42.650;23.364;2023-05-28T07:35:10;94641.06;;;21.07;nan
11099;BME280;12223;42.650;23.364;2023-05-28T07:37:37;94638.97;;;20.80;nan
11099;BME280;12223;42.650;23.364;2023-05-28T07:40:06;94642.81;;;20.51;nan
11099;BME280;12223;42.650;23.364;2023-05-28T07:42:35;94640.72;;;20.42;nan
11099;BME280;12223;42.650;23.364;2023-05-28T07:45:02;94638.09;;;20.37;nan
11099;BME280;12223;42.650;23.364;2023-05-28T07:47:30;94634.06;;;20.06;nan
11099;BME280;12223;42.650;23.364;2023-05-28T07:49:56;94629.34;;;19.93;nan
11099;BME280;12223;42.650;23.364;2023-05-28T07:52:24;94629.78;;;19.76;nan
11099;BME280;12223;42.650;23.364;2023-05-28T07:54:54;94637.81;;;19.32;nan
11099;BME280;12223;42.650;23.364;2023-05-28T07:57:23;94632.28;;;19.13;nan
11099;BME280;12223;42.650;23.364;2023-05-28T07:59:52;94623.06;;;19.29;nan
11099;BME280;12223;42.650;23.364;2023-05-28T08:02:21;94601.56;;;19.01;nan
11099;BME280;12223;42.650;23.364;2023-05-28T08:04:49;94623.84;;;18.86;nan
11099;BME280;12223;42.650;23.364;2023-05-28T08:07:20;94620.94;;;18.77;nan
11099;BME280;12223;42.650;23.364;2023-05-28T08:09:49;94634.44;;;18.27;nan
11099;BME280;12223;42.650;23.364;2023-05-28T08:12:16;94617.88;;;18.20;nan
11099;BME280;12223;42.650;23.364;2023-05-28T08:14:43;94635.25;;;18.02;nan
11099;BME280;12223;42.650;23.364;2023-05-28T08:17:11;94624.03;;;17.95;nan
11099;BME280;12223;42.650;23.364;2023-05-28T08:19:38;94615.47;;;18.08;nan
11099;BME280;12223;42.650;23.364;2023-05-28T08:22:05;94623.13;;;18.50;nan
11099;BME280;12223;42.650;23.364;2023-05-28T08:24:32;94622.53;;;18.83;nan
11099;BME280;12223;42.650;23.364;2023-05-28T08:26:59;94632.81;;;19.15;nan
11099;BME280;12223;42.650;23.364;2023-05-28T08:29:26;94626.56;;;19.30;nan
11099;BME280;12223;42.650;23.364;2023-05-28T08:31:53;94632.09;;;19.44;nan
11099;BME280;12223;42.650;23.364;2023-05-28T08:34:21;94630.19;;;19.54;nan
11099;BME280;12223;42.650;23.364;2023-05-28T08:36:48;94627.88;;;19.77;nan
11099;BME280;12223;42.650;23.364;2023-05-28T08:39:22;94626.06;;;19.67;nan
11099;BME280;12223;42.650;23.364;2023-05-28T08:41:52;94639.78;;;19.60;nan
11099;BME280;12223;42.650;23.364;2023-05-28T08:44:19;94619.28;;;19.41;nan
11099;BME280;12223;42.650;23.364;2023-05-28T08:46:47;94626.66;;;19.64;nan
11099;BME280;12223;42.650;23.364;2023-05-28T08:49:17;94629.19;;;19.79;nan
11099;BME280;12223;42.650;23.364;2023-05-28T08:51:48;94636.16;;;19.80;nan
11099;BME280;12223;42.650;23.364;2023-05-28T08:54:20;94637.16;;;19.89;nan
11099;BME280;12223;42.650;23.364;2023-05-28T08:56:47;94633.03;;;19.68;nan
11099;BME280;12223;42.650;23.364;2023-05-28T08:59:13;94624.94;;;20.07;nan
11099;BME280;12223;42.650;23.364;2023-05-28T09:01:42;94629.94;;;20.19;nan
11099;BME280;12223;42.650;23.364;2023-05-28T09:04:12;94631.25;;;20.50;nan
11099;BME280;12223;42.650;23.364;2023-05-28T09:06:39;94610.19;;;20.62;nan
11099;BME280;12223;42.650;23.364;2023-05-28T09:09:07;94603.91;;;20.96;nan
11099;BME280;12223;42.650;23.364;2023-05-28T09:11:35;94619.41;;;20.80;nan
11099;BME280;12223;42.650;23.364;2023-05-28T09:14:10;94629.78;;;20.39;nan
11099;BME280;12223;42.650;23.364;2023-05-28T09:16:39;94620.50;;;19.97;nan
11099;BME280;12223;42.650;23.364;2023-05-28T09:19:07;94621.63;;;19.52;nan
11099;BME280;12223;42.650;23.364;2023-05-28T09:21:34;94628.88;;;18.98;nan
11099;BME280;12223;42.650;23.364;2023-05-28T09:24:02;94620.75;;;18.59;nan
11099;BME280;12223;42.650;23.364;2023-05-28T09:26:32;94615.44;;;18.28;nan
11099;BME280;12223;42.650;23.364;2023-05-28T09:28:58;94602.09;;;18.18;nan
11099;BME280;12223;42.650;23.364;2023-05-28T09:31:29;94610.66;;;18.10;nan
11099;BME280;12223;42.650;23.364;2023-05-28T09:33:59;94621.06;;;18.12;nan
11099;BME280;12223;42.650;23.364;2023-05-28T09:36:28;94612.78;;;18.13;nan
11099;BME280;12223;42.650;23.364;2023-05-28T09:38:55;94620.25;;;18.16;nan
11099;BME280;12223;42.650;23.364;2023-05-28T09:41:23;94629.13;;;18.01;nan
11099;BME280;12223;42.650;23.364;2023-05-28T09:43:57;94613.59;;;18.03;nan
11099;BME280;12223;42.650;23.364;2023-05-28T09:46:28;94621.63;;;18.03;nan
11099;BME280;12223;42.650;23.364;2023-05-28T09:48:55;94623.22;;;17.99;nan
11099;BME280;12223;42.650;23.364;2023-05-28T09:51:24;94623.47;;;18.03;nan
11099;BME280;12223;42.650;23.364;2023-05-28T09:53:56;94625.38;;;18.07;nan
11099;BME280;12223;42.650;23.364;2023-05-28T09:56:24;94617.06;;;18.09;nan
11099;BME280;12223;42.650;23.364;2023-05-28T09:58:56;94626.16;;;17.98;nan
11099;BME280;12223;42.650;23.364;2023-05-28T10:01:26;94611.47;;;18.05;nan
11099;BME280;12223;42.650;23.364;2023-05-28T10:04:01;94635.25;;;18.12;nan
11099;BME280;12223;42.650;23.364;2023-05-28T10:06:30;94626.69;;;18.20;nan
11099;BME280;12223;42.650;23.364;2023-05-28T10:08:59;94633.34;;;18.28;nan
11099;BME280;12223;42.650;23.364;2023-05-28T10:11:30;94622.63;;;18.28;nan
11099;BME280;12223;42.650;23.364;2023-05-28T10:13:59;94626.41;;;18.32;nan
11099;BME280;12223;42.650;23.364;2023-05-28T10:16:27;94637.09;;;18.32;nan
11099;BME280;12223;42.650;23.364;2023-05-28T10:18:54;94644.25;;;18.46;nan
11099;BME280;12223;42.650;23.364;2023-05-28T10:21:23;94642.06;;;18.79;nan
11099;BME280;12223;42.650;23.364;2023-05-28T10:23:51;94633.00;;;18.70;nan
11099;BME280;12223;42.650;23.364;2023-05-28T10:26:18;94628.88;;;18.98;nan
11099;BME280;12223;42.650;23.364;2023-05-28T10:28:53;94624.03;;;19.00;nan
11099;BME280;12223;42.650;23.364;2023-05-28T10:31:23;94621.63;;;18.98;nan
11099;BME280;12223;42.650;23.364;2023-05-28T10:33:50;94627.66;;;18.70;nan
11099;BME280;12223;42.650;23.364;2023-05-28T10:36:17;94631.16;;;18.60;nan
11099;BME280;12223;42.650;23.364;2023-05-28T10:38:46;94636.00;;;18.38;nan
11099;BME280;12223;42.650;23.364;2023-05-28T10:41:23;94624.75;;;18.41;nan
11099;BME280;12223;42.650;23.364;2023-05-28T10:43:51;94627.72;;;18.34;nan
11099;BME280;12223;42.650;23.364;2023-05-28T10:46:18;94619.41;;;18.51;nan
11099;BME280;12223;42.650;23.364;2023-05-28T10:49:08;94631.16;;;18.50;nan
11099;BME280;12223;42.650;23.364;2023-05-28T10:51:44;94604.44;;;18.45;nan
11099;BME280;12223;42.650;23.364;2023-05-28T10:54:15;94606.94;;;18.96;nan
11099;BME280;12223;42.650;23.364;2023-05-28T10:57:10;94607.56;;;19.26;nan
11099;BME280;12223;42.650;23.364;2023-05-28T10:59:44;94611.19;;;19.02;nan
11099;BME280;12223;42.650;23.364;2023-05-28T11:02:12;94621.66;;;18.93;nan
11099;BME280;12223;42.650;23.364;2023-05-28T11:04:40;94600.81;;;18.90;nan
11099;BME280;12223;42.650;23.364;2023-05-28T11:07:07;94608.84;;;18.90;nan
11099;BME280;12223;42.650;23.364;2023-05-28T11:09:34;94605.38;;;18.84;nan
11099;BME280;12223;42.650;23.364;2023-05-28T11:12:01;94605.88;;;18.97;nan
11099;BME280;12223;42.650;23.364;2023-05-28T11:14:32;94588.88;;;19.21;nan
11099;BME280;12223;42.650;23.364;2023-05-28T11:16:59;94604.28;;;19.40;nan
11099;BME280;12223;42.650;23.364;2023-05-28T11:19:26;94598.63;;;19.41;nan
11099;BME280;12223;42.650;23.364;2023-05-28T11:21:55;94585.34;;;19.26;nan
11099;BME280;12223;42.650;23.364;2023-05-28T11:24:22;94597.41;;;19.23;nan
11099;BME280;12223;42.650;23.364;2023-05-28T11:26:51;94596.06;;;19.26;nan
11099;BME280;12223;42.650;23.364;2023-05-28T11:29:20;94603.97;;;19.02;nan
11099;BME280;12223;42.650;23.364;2023-05-28T11:31:48;94614.72;;;18.92;nan
11099;BME280;12223;42.650;23.364;2023-05-28T11:34:19;94603.00;;;18.83;nan
11099;BME280;12223;42.650;23.364;2023-05-28T11:36:45;94594.59;;;19.00;nan
11099;BME280;12223;42.650;23.364;2023-05-28T11:39:14;94588.31;;;19.24;nan
11099;BME280;12223;42.650;23.364;2023-05-28T11:41:41;94591.84;;;19.15;nan
11099;BME280;12223;42.650;23.364;2023-05-28T11:44:18;94595.78;;;19.27;nan
11099;BME280;12223;42.650;23.364;2023-05-28T11:46:45;94592.78;;;19.39;nan
11099;BME280;12223;42.650;23.364;2023-05-28T11:49:15;94589.31;;;19.78;nan
11099;BME280;12223;42.650;23.364;2023-05-28T11:51:42;94587.53;;;19.97;nan
11099;BME280;12223;42.650;23.364;2023-05-28T11:54:09;94589.09;;;20.27;nan
11099;BME280;12223;42.650;23.364;2023-05-28T11:56:37;94595.94;;;20.43;nan
11099;BME280;12223;42.650;23.364;2023-05-28T11:59:04;94590.47;;;20.24;nan
11099;BME280;12223;42.650;23.364;2023-05-28T12:01:31;94590.78;;;20.18;nan
11099;BME280;12223;42.650;23.364;2023-05-28T12:04:03;94599.28;;;19.67;nan
11099;BME280;12223;42.650;23.364;2023-05-28T12:06:31;94587.47;;;19.34;nan
11099;BME280;12223;42.650;23.364;2023-05-28T12:09:02;94588.88;;;19.16;nan
11099;BME280;12223;42.650;23.364;2023-05-28T12:11:29;94586.53;;;19.05;nan
11099;BME280;12223;42.650;23.364;2023-05-28T12:14:08;94591.44;;;18.93;nan
11099;BME280;12223;42.650;23.364;2023-05-28T12:16:42;94589.28;;;18.95;nan
11099;BME280;12223;42.650;23.364;2023-05-28T12:19:10;94593.00;;;18.99;nan
11099;BME280;12223;42.650;23.364;2023-05-28T12:21:39;94586.03;;;18.98;nan
11099;BME280;12223;42.650;23.364;2023-05-28T12:24:12;94578.97;;;19.17;nan
11099;BME280;12223;42.650;23.364;2023-05-28T12:26:40;94578.41;;;19.25;nan
11099;BME280;12223;42.650;23.364;2023-05-28T12:29:08;94587.66;;;19.43;nan
11099;BME280;12223;42.650;23.364;2023-05-28T12:31:36;94584.16;;;19.42;nan
11099;BME280;12223;42.650;23.364;2023-05-28T12:34:03;94588.25;;;19.29;nan
11099;BME280;12223;42.650;23.364;2023-05-28T12:36:29;94585.09;;;19.27;nan
11099;BME280;12223;42.650;23.364;2023-05-28T12:38:57;94584.91;;;19.14;nan
11099;BME280;12223;42.650;23.364;2023-05-28T12:41:24;94588.06;;;19.21;nan
11099;BME280;12223;42.650;23.364;2023-05-28T12:43:51;94580.53;;;19.23;nan
11099;BME280;12223;42.650;23.364;2023-05-28T12:46:19;94577.25;;;19.36;nan
11099;BME280;12223;42.650;23.364;2023-05-28T12:48:46;94582.56;;;19.46;nan
11099;BME280;12223;42.650;23.364;2023-05-28T12:51:14;94586.25;;;19.55;nan
11099;BME280;12223;42.650;23.364;2023-05-28T12:53:41;94577.03;;;19.66;nan
11099;BME280;12223;42.650;23.364;2023-05-28T12:56:08;94583.66;;;20.08;nan
11099;BME280;12223;42.650;23.364;2023-05-28T12:58:35;94563.97;;;20.46;nan
11099;BME280;12223;42.650;23.364;2023-05-28T13:01:01;94574.63;;;20.75;nan
11099;BME280;12223;42.650;23.364;2023-05-28T13:03:31;94572.69;;;21.00;nan
11099;BME280;12223;42.650;23.364;2023-05-28T13:05:58;94570.66;;;21.15;nan
11099;BME280;12223;42.650;23.364;2023-05-28T13:08:25;94566.34;;;21.14;nan
11099;BME280;12223;42.650;23.364;2023-05-28T13:10:52;94563.66;;;21.14;nan
11099;BME280;12223;42.650;23.364;2023-05-28T13:13:19;94557.72;;;20.99;nan
11099;BME280;12223;42.650;23.364;2023-05-28T13:15:46;94564.78;;;20.90;nan
11099;BME280;12223;42.650;23.364;2023-05-28T13:18:12;94556.63;;;20.76;nan